Terminal Aerodrome Forecast
Issued by NWS

Home | Current Version | Previous Version | Text Only | Print | Product List | Glossary On
Versions: 1 2 3 4 5 6 7 8 9 10 11 12 13 14 15 16 17 18 19 20 21 22
000
FTUS46 KLOX 250600 AAA
TAFBUR
TAF AMD
KBUR 250620Z 2506/2606 16005KT P6SM SCT025 BKN040
     FM251100 16004KT P6SM SCT025 OVC035
     FM251800 19015KT P6SM OVC040
     FM260000 21011KT P6SM OVC050
     FM260300 24010KT P6SM BKN050=

USA.gov is the U.S. government's official web portal to all federal, state and local government web resources and services.